Huvudsida
METAR-TAF:

METAR-TAF

Flygplatser :

Forūdgāh-e Gorgān

Gorgan, Iran

latitud: 36-49N, longitud: 054-28E, höjd: 155 m

Aktuellt väderrapport

Denna rapport gjordes för 44 minuter sedan, klockan 03:00 UTC
Stilla vind
Temperatur 11°C
Fuktighet 87%
Tryck 1022 hPa
Sikt: 8000 m
Spridda moln på en höjd av 2000 ft
Spridda moln på en höjd av 3000 ft
Mulet på en höjd av 7000 ft
lätt regn

METAR: OING 200300Z 00000KT 8000 -RA SCT020 SCT030 OVC070 11/09 Q1022

Tid: 07:14 (03:44 UTC)


TAF: saknas

Aktuella väderrapporter och prognoser från 4000 flygplatser (METAR- och TAF-rapporter).

De tillgängliga stationerna syns som gula och röda prickar på kartan.

För musen över prickarna för att se namnen på stationerna.

Klicka sedan för att få väderrapporter och prognoser.

För att ändra kartan: Klicka på de gröna knapparna med ett svart kors på för att zooma in; den gröna knappen med ett streck på för att zooma ut; eller på de gröna pilarna för angränsande kartor.


METAR-TAF: